• Join FlightAware (Why Join?)
  • Login
  • US Flag 
09:03PM EDT


 

Airport Tracker/Info


-or-


 

Live Flight TrackerFlight Track Log ✈ ASQ5958 ✈ 19-Apr-2013 ✈ KPIT - KDEN

Flight Track Log - Related Links

Times and Time Zones

All times are in EDT time to prevent confusion due to time zone crossing. See the ASQ5958 flight status page for this flight to view local times or setup timezone preferences in your user account.

Time Position Orientation Groundspeed Altitude Reporting Facility
EDT Latitude Longitude Course Direction KTS MPH feet Rate Location/Type
11:17PM 40.5031 -80.2869 274° West 160 184 2,500  Level FAA TRACON SMA TRACON (SMA)
11:17PM 40.5042 -80.3058 274° West 166 191 3,300 2,220 Climbing FAA TRACON SMA TRACON (SMA)
11:18PM 40.5078 -80.3281 282° West 199 229 4,000 2,220 Climbing FAA TRACON SMA TRACON (SMA)
11:18PM 40.5136 -80.3575 285° West 223 257 4,800 2,520 Climbing FAA TRACON SMA TRACON (SMA)
11:18PM 40.5189 -80.3822 286° West 232 267 5,700 2,820 Climbing FAA TRACON SMA TRACON (SMA)
11:19PM 40.5242 -80.4056 287° West 230 265 6,700 3,300 Climbing FAA TRACON SMA TRACON (SMA)
11:19PM 40.5308 -80.4383 285° West 231 266 7,900 3,120 Climbing FAA TRACON SMA TRACON (SMA)
11:19PM 40.5361 -80.4636 285° West 232 267 8,800 2,700 Climbing FAA TRACON SMA TRACON (SMA)
11:20PM 40.5417 -80.4892 286° West 233 268 9,700 2,520 Climbing FAA TRACON SMA TRACON (SMA)
11:20PM 40.5483 -80.5214 285° West 236 272 10,500 1,500 Climbing FAA TRACON SMA TRACON (SMA)
11:20PM 40.5539 -80.5489 285° West 250 288 10,700 720 Climbing FAA TRACON SMA TRACON (SMA)
11:21PM 40.5625 -80.5894 286° West 294 338 11,000 600 Climbing FAA TRACON SMA TRACON (SMA)
11:21PM 40.5694 -80.6236 285° West 319 367 11,100 420 Climbing FAA TRACON SMA TRACON (SMA)
11:21PM 40.5800 -80.6544 294° West 334 384 11,300 1,200 Climbing FAA TRACON SMA TRACON (SMA)
11:22PM 40.5858 -80.7056 279° West 339 390 11,900 1,620 Climbing FAA TRACON SMA TRACON (SMA)
11:22PM 40.5944 -80.7428 287° West 343 395 12,400 1,620 Climbing FAA TRACON SMA TRACON (SMA)
11:22PM 40.6019 -80.7797 285° West 342 394 13,000 1,620 Climbing FAA TRACON SMA TRACON (SMA)
11:23PM 40.6119 -80.8117 292° West 342 394 13,500 1,920 Climbing FAA TRACON SMA TRACON (SMA)
11:23PM 40.6214 -80.8603 284° West 343 395 14,300 2,100 Climbing FAA TRACON SMA TRACON (SMA)
11:23PM 40.6269 -80.9011 280° West 342 394 14,900 1,800 Climbing FAA TRACON SMA TRACON (SMA)
11:24PM 40.6344 -80.9381 285° West 342 394 15,500 2,040 Climbing FAA TRACON SMA TRACON (SMA)
11:24PM 40.6439 -80.9844 285° West 341 392 16,300 2,100 Climbing FAA TRACON SMA TRACON (SMA)
11:24PM 40.6517 -81.0214 286° West 341 392 16,900 1,680 Climbing FAA TRACON SMA TRACON (SMA)
11:25PM 40.6592 -81.0583 285° West 340 391 17,400 2,100 Climbing FAA TRACON SMA TRACON (SMA)
11:25PM 40.6725 -81.0994 293° West 340 391 18,300 2,220 Climbing FAA TRACON SMA TRACON (SMA)
11:25PM 40.6767 -81.1411 278° West 339 390 18,900 1,920 Climbing FAA TRACON SMA TRACON (SMA)
11:26PM 40.6886 -81.1814 291° West 338 389 19,600 1,920 Climbing FAA TRACON SMA TRACON (SMA)
11:26PM 40.6953 -81.2172 284° West 337 388 20,200 1,920 Climbing FAA TRACON SMA TRACON (SMA)
11:26PM 40.7003 -81.2594 279° West 335 386 20,900 1,920 Climbing FAA TRACON SMA TRACON (SMA)
11:27PM 40.7075 -81.2958 285° West 333 383 21,500 1,800 Climbing FAA TRACON SMA TRACON (SMA)
11:27PM 40.7206 -81.3350 294° West 331 381 22,100 1,860 Climbing FAA TRACON SMA TRACON (SMA)
11:27PM 40.7244 -81.3761 277° West 329 379 22,800 1,500 Climbing FAA TRACON SMA TRACON (SMA)
11:28PM 40.7325 -81.4119 287° West 331 381 23,100 720 Climbing FAA TRACON SMA TRACON (SMA)
11:28PM 40.7367 -81.4300 287° West 333 383 23,300 300 Climbing FAA TRACON SMA TRACON (SMA)
11:28PM 40.7367 -81.4300 180° South 333 383 23,300 1,260 Level FAA TRACON SMA TRACON (SMA)
11:29PM 40.7758 -81.5647 291° West 346 398 24,600 1,500 Climbing Cleveland Center
11:30PM 40.8061 -81.6886 288° West 353 406 25,800 1,140 Climbing Cleveland Center
11:31PM 40.8233 -81.8233 280° West 353 406 26,900 1,140 Climbing Cleveland Center
11:32PM 40.8406 -81.9500 280° West 353 406 28,100 1,200 Climbing Cleveland Center
11:33PM 40.8578 -82.0767 280° West 353 406 29,300 1,140 Climbing Cleveland Center
11:34PM 40.8728 -82.2031 279° West 353 406 30,400 1,140 Climbing Cleveland Center
11:35PM 40.8917 -82.3328 281° West 353 406 31,600 1,020 Climbing Cleveland Center
11:36PM 40.9086 -82.4597 280° West 353 406 32,500 900 Climbing Cleveland Center
11:37PM 40.9269 -82.5919 280° West 358 412 33,500 900 Climbing Cleveland Center
11:38PM 40.9436 -82.7081 281° West 358 412 34,300 840 Climbing Cleveland Center
11:39PM 40.9600 -82.8378 280° West 363 418 35,200 600 Climbing Cleveland Center
11:40PM 40.9761 -82.9675 279° West 358 412 35,600 360 Climbing Cleveland Center
11:41PM 40.9922 -83.0975 279° West 358 412 36,000 180 Climbing Cleveland Center
11:42PM 41.0139 -83.2442 281° West 363 418 36,000  Level Cleveland Center
11:43PM 41.0294 -83.3686 279° West 376 433 36,000  Level Cleveland Center
11:44PM 41.0469 -83.5128 279° West 393 452 36,000  Level Cleveland Center
11:45PM 41.0658 -83.6594 280° West 398 458 36,000  Level Cleveland Center
11:46PM 41.0828 -83.8064 279° West 398 458 36,000  Level Cleveland Center
11:47PM 41.0994 -83.9506 279° West 398 458 36,000  Level Cleveland Center
11:48PM 41.1158 -84.0947 279° West 398 458 36,000  Level Cleveland Center
11:49PM 41.1297 -84.2056 279° West 404 465 36,000  Level Chicago Center
11:50PM 41.1464 -84.3503 279° West 400 460 36,000  Level Chicago Center
11:51PM 41.1642 -84.4992 279° West 406 467 36,000  Level Chicago Center
11:52PM 41.1817 -84.6481 279° West 409 471 36,000  Level Chicago Center
11:53PM 41.1978 -84.7992 278° West 413 475 36,000  Level Chicago Center
11:54PM 41.2147 -84.9506 279° West 414 476 36,000  Level Chicago Center
11:55PM 41.2322 -85.1019 279° West 414 476 36,000  Level Chicago Center
11:56PM 41.2472 -85.2533 278° West 413 475 36,000  Level Chicago Center
11:57PM 41.2644 -85.4050 279° West 413 475 36,000  Level Chicago Center
11:58PM 41.2803 -85.5569 278° West 412 474 36,000  Level Chicago Center
11:59PM 41.2956 -85.7094 278° West 413 475 36,000  Level Chicago Center
12:00AM 41.3117 -85.8644 278° West 419 482 36,000  Level Chicago Center
12:01AM 41.3267 -86.0167 278° West 415 478 36,000  Level Chicago Center
12:02AM 41.3453 -86.1958 278° West 408 470 36,000  Level Chicago Center
12:03AM 41.3592 -86.3464 277° West 408 470 36,000  Level Chicago Center
12:04AM 41.3736 -86.4953 277° West 408 470 36,000  Level Chicago Center
12:05AM 41.3886 -86.6458 278° West 409 471 36,000  Level Chicago Center
12:06AM 41.4025 -86.7872 278° West 413 475 36,000  Level Chicago Center
12:07AM 41.4164 -86.9372 277° West 410 472 36,000  Level Chicago Center
12:08AM 41.4297 -87.0883 277° West 412 474 36,000  Level Chicago Center
12:09AM 41.4436 -87.2386 277° West 410 472 36,000  Level Chicago Center
12:10AM 41.4603 -87.4208 277° West 414 476 36,000  Level Chicago Center
12:11AM 41.4731 -87.5728 276° West 415 478 36,000  Level Chicago Center
12:12AM 41.4858 -87.7211 277° West 408 470 36,000  Level Chicago Center
12:13AM 41.4978 -87.8675 276° West 404 465 36,000  Level Chicago Center
12:14AM 41.5086 -88.0139 276° West 400 460 36,000  Level Chicago Center
12:15AM 41.5225 -88.1511 278° West 397 457 36,000  Level Chicago Center
12:16AM 41.5339 -88.2956 276° West 398 458 36,000  Level Chicago Center
12:17AM 41.5475 -88.4744 276° West 406 467 36,000  Level Chicago Center
12:18AM 41.5600 -88.6269 276° West 414 476 36,000  Level Chicago Center
12:19AM 41.5714 -88.7781 276° West 413 475 36,000  Level Chicago Center
12:20AM 41.5833 -88.9322 276° West 418 481 36,000  Level Chicago Center
12:21AM 41.5956 -89.0869 276° West 421 484 36,000  Level Chicago Center
12:22AM 41.6067 -89.2403 276° West 418 481 36,000  Level Chicago Center
12:23AM 41.6164 -89.3942 275° West 418 481 36,000  Level Chicago Center
12:24AM 41.6292 -89.5619 276° West 417 480 36,000  Level Chicago Center
12:25AM 41.6406 -89.7169 276° West 420 483 36,000  Level Chicago Center
12:26AM 41.6500 -89.8711 275° West 420 483 36,000  Level Chicago Center
12:27AM 41.6614 -90.0269 276° West 421 484 36,000  Level Chicago Center
12:28AM 41.6725 -90.1833 275° West 426 490 36,000  Level Chicago Center
12:29AM 41.6800 -90.3436 274° West 435 501 36,000  Level Chicago Center
12:30AM 41.6894 -90.4983 275° West 425 489 36,000  Level Chicago Center
12:31AM 41.7014 -90.6642 276° West 418 481 36,000  Level Chicago Center
12:32AM 41.7103 -90.8175 274° West 415 478 36,000  Level Chicago Center
12:33AM 41.7183 -90.9686 274° West 411 473 36,000  Level Chicago Center
12:34AM 41.7275 -91.1192 275° West 408 470 36,000  Level Chicago Center
12:35AM 41.7367 -91.2717 275° West 412 474 36,000  Level Chicago Center
12:36AM 41.7447 -91.4250 274° West 415 478 36,000  Level Chicago Center
12:37AM 41.7525 -91.5803 274° West 419 482 36,000  Level Chicago Center
12:38AM 41.7608 -91.7361 274° West 420 483 36,000  Level Chicago Center
12:39AM 41.7681 -91.8917 274° West 422 486 36,000  Level Chicago Center
12:40AM 41.7767 -92.0453 274° West 418 481 36,000  Level Chicago Center
12:41AM 41.7836 -92.1972 274° West 413 475 36,000  Level Chicago Center
12:42AM 41.7894 -92.3486 273° West 409 471 36,000  Level Chicago Center
12:43AM 41.7969 -92.5011 274° West 412 474 36,000  Level Chicago Center
12:44AM 41.8028 -92.6500 273° West 406 467 36,000  Level Chicago Center
12:45AM 41.8075 -92.7717 273° West 405 466 36,000  Level Minneapolis Center
12:46AM 41.8144 -92.9378 273° West 404 465 36,000  Level Minneapolis Center
12:47AM 41.8183 -93.0875 272° West 405 466 36,000  Level Minneapolis Center
12:48AM 41.8125 -93.2392 267° West 409 471 36,000  Level Minneapolis Center
12:49AM 41.8072 -93.3894 267° West 409 471 36,000  Level Minneapolis Center
12:50AM 41.8022 -93.5386 267° West 407 468 36,000  Level Minneapolis Center
12:51AM 41.7961 -93.6914 267° West 411 473 36,000  Level Minneapolis Center
12:52AM 41.7894 -93.8464 267° West 418 481 36,000  Level Minneapolis Center
12:53AM 41.7814 -93.9933 266° West 408 470 36,000  Level Minneapolis Center
12:54AM 41.7753 -94.1406 267° West 400 460 36,000  Level Minneapolis Center
12:55AM 41.7706 -94.2903 268° West 401 461 36,000  Level Minneapolis Center
12:56AM 41.7642 -94.4392 267° West 401 461 36,000  Level Minneapolis Center
12:57AM 41.7581 -94.5875 267° West 401 461 36,000  Level Minneapolis Center
12:58AM 41.7503 -94.7364 266° West 402 463 36,000  Level Minneapolis Center
12:59AM 41.7433 -94.8833 266° West 398 458 36,000  Level Minneapolis Center
01:00AM 41.7361 -95.0314 266° West 398 458 36,000  Level Minneapolis Center
01:01AM 41.7286 -95.1792 266° West 399 459 36,000  Level Minneapolis Center
01:02AM 41.7194 -95.3583 266° West 402 463 36,000  Level Minneapolis Center
01:03AM 41.7111 -95.5067 266° West 402 463 36,000  Level Minneapolis Center
01:04AM 41.7019 -95.6528 265° West 398 458 36,000  Level Minneapolis Center
01:05AM 41.6944 -95.7983 266° West 397 457 36,000  Level Minneapolis Center
01:06AM 41.6844 -95.9456 265° West 400 460 36,000  Level Minneapolis Center
01:07AM 41.6764 -96.0939 266° West 404 465 36,000  Level Minneapolis Center
01:08AM 41.6678 -96.2458 266° West 412 474 36,000  Level Minneapolis Center
01:09AM 41.6578 -96.3986 265° West 415 478 36,000  Level Minneapolis Center
01:10AM 41.6481 -96.5519 265° West 418 481 36,000  Level Minneapolis Center
01:11AM 41.6386 -96.7042 265° West 414 476 36,000  Level Minneapolis Center
01:12AM 41.6281 -96.8564 265° West 414 476 36,000  Level Minneapolis Center
01:13AM 41.6175 -97.0069 265° West 411 473 36,000  Level Minneapolis Center
01:14AM 41.6069 -97.1569 265° West 409 471 36,000  Level Minneapolis Center
01:15AM 41.5975 -97.3050 265° West 406 467 36,000  Level Minneapolis Center
01:16AM 41.5872 -97.4517 265° West 401 461 36,000  Level Minneapolis Center
01:17AM 41.5758 -97.6017 264° West 402 463 36,000  Level Minneapolis Center
01:18AM 41.5642 -97.7539 264° West 407 468 36,000  Level Minneapolis Center
01:19AM 41.5531 -97.9075 265° West 412 474 36,000  Level Minneapolis Center
01:20AM 41.5417 -98.0600 264° West 413 475 36,000  Level Minneapolis Center
01:21AM 41.5286 -98.2131 264° West 414 476 36,000  Level Minneapolis Center
01:23AM 41.5142 -98.3981 264° West 418 481 36,000  Level Minneapolis Center
01:24AM 41.5044 -98.5217 264° West 418 481 36,000  Level Minneapolis Center
01:25AM 41.4925 -98.6756 264° West 418 481 36,000  Level Minneapolis Center
01:26AM 41.4661 -98.8547 259° West 414 476 36,000  Level Minneapolis Center
01:27AM 41.4369 -99.0047 256° West 415 478 36,000  Level Minneapolis Center
01:28AM 41.4086 -99.1458 255° West 413 475 36,000  Level Denver Center
01:29AM 41.3803 -99.2919 256° West 411 473 36,000  Level Denver Center
01:30AM 41.3514 -99.4386 255° West 411 473 36,000  Level Denver Center
01:31AM 41.3222 -99.5858 255° West 412 474 36,000  Level Denver Center
01:32AM 41.2903 -99.7506 256° West 412 474 36,000  Level Denver Center
01:33AM 41.2633 -99.8914 256° West 412 474 36,000  Level Denver Center
01:34AM 41.2344 -100.0317 255° West 412 474 36,000  Level Denver Center
01:35AM 41.2064 -100.1722 255° West 413 475 36,000  Level Denver Center
01:36AM 41.1725 -100.3364 255° West 414 476 36,000  Level Denver Center
01:37AM 41.1436 -100.4767 255° West 413 475 36,000  Level Denver Center
01:38AM 41.1150 -100.6169 255° West 414 476 36,000  Level Denver Center
01:39AM 41.0803 -100.7794 254° West 414 476 36,000  Level Denver Center
01:40AM 41.0522 -100.9186 255° West 414 476 36,000  Level Denver Center
01:41AM 41.0181 -101.0789 254° West 410 472 36,000  Level Denver Center
01:42AM 40.9889 -101.2178 254° West 411 473 36,000  Level Denver Center
01:43AM 40.9600 -101.3592 255° West 416 479 36,000  Level Denver Center
01:44AM 40.9236 -101.5244 254° West 420 483 36,000  Level Denver Center
01:45AM 40.8933 -101.6667 254° West 421 484 36,000  Level Denver Center
01:46AM 40.8633 -101.8072 254° West 416 479 36,000  Level Denver Center
01:47AM 40.8269 -101.9711 254° West 416 479 36,000  Level Denver Center
01:48AM 40.7953 -102.1131 254° West 419 482 36,000  Level Denver Center
01:49AM 40.7639 -102.2506 253° West 411 473 36,000  Level Denver Center
01:50AM 40.7286 -102.4089 254° West 405 466 36,000  Level Denver Center
01:51AM 40.6981 -102.5461 254° West 408 470 36,000  Level Denver Center
01:52AM 40.6622 -102.6986 253° West 412 474 36,000  Level Denver Center
01:53AM 40.6347 -102.8211 254° West 414 476 36,000  Level Denver Center
01:54AM 40.6017 -102.9686 254° West 417 480 36,000 -180 Level Denver Center
01:55AM 40.5669 -103.1139 253° West 414 476 35,700 -1,620 Descending Denver Center
01:56AM 40.5347 -103.2561 253° West 404 465 32,800 -2,880 Descending Denver Center
01:57AM 40.5003 -103.3964 252° West 402 463 30,000 -2,880 Descending Denver Center
01:58AM 40.4656 -103.5458 253° West 423 487 27,100 -2,940 Descending Denver Center
01:59AM 40.4306 -103.6972 253° West 428 493 24,100 -3,180 Descending Denver Center
02:00AM 40.3933 -103.8569 253° West 421 484 20,700 -3,180 Descending Denver Center
02:01AM 40.3453 -103.9828 243° Southwest 388 447 17,800 -2,940 Descending Denver Center
02:02AM 40.2850 -104.0964 235° Southwest 381 438 14,800 -3,000 Descending Denver Center
02:03AM 40.2289 -104.2083 237° Southwest 370 426 11,800 -2,100 Descending Denver Center
02:04AM 40.1692 -104.3214 235° Southwest 354 407 10,600 -900 Descending Denver Center
02:05AM 40.1156 -104.4261 236° Southwest 347 399 10,000 -840 Descending Denver Center
02:06AM 40.0708 -104.5117 236° Southwest 280 322 9,000 -1,200 Descending Denver Center
02:06AM 40.0667 -104.5333 256° West 272 313 8,500 -1,440 Descending Denver TRACON
02:07AM 40.0167 -104.6000 226° Southwest 247 284 7,200 -900 Descending Denver TRACON
02:08AM 39.9922 -104.6506 238° Southwest 204 235 7,000 -480 Descending Denver Center
02:09AM 39.9558 -104.6806 212° Southwest 156 180 6,400 -600 Descending Denver Center
02:10AM 39.9169 -104.6867 187° South 144 166 5,800 -600 Descending Denver Center
02:11AM 39.8797 -104.6872 181° South 140 161 5,300 -540 Descending Denver Center
02:13AM 39.8617 -104.6732 180° South  Level Estimated
02:20AM 39.8617 -104.6732 180° South  Level Estimated
02:21AM 39.8617 -104.6732 180° South  Level Estimated